createdAt,value
2022-12-16T00:01:42.544Z,97006.66
2022-12-16T00:04:09.484Z,97005.25
2022-12-16T00:06:36.161Z,96995.25
2022-12-16T00:09:03.242Z,96997.31
2022-12-16T00:11:47.525Z,96999.50
2022-12-16T00:14:14.437Z,96994.53
2022-12-16T00:16:41.388Z,96991.69
2022-12-16T00:19:08.241Z,96987.94
2022-12-16T00:21:37.987Z,96998.09
2022-12-16T00:24:04.941Z,96985.53
2022-12-16T00:26:31.860Z,96990.19
2022-12-16T00:28:58.705Z,96981.03
2022-12-16T00:31:25.438Z,96973.66
2022-12-16T00:33:56.442Z,96959.81
2022-12-16T00:36:23.340Z,96964.91
2022-12-16T00:38:52.486Z,96965.06
2022-12-16T00:41:22.426Z,96961.53
2022-12-16T00:43:49.245Z,96960.66
2022-12-16T00:46:15.986Z,96955.00
2022-12-16T00:48:42.959Z,96947.13
2022-12-16T00:51:12.726Z,96949.44
2022-12-16T00:53:39.557Z,96942.28
2022-12-16T00:56:07.553Z,96931.56
2022-12-16T00:58:35.408Z,96925.38
2022-12-16T01:01:09.286Z,96915.84
2022-12-16T01:03:36.939Z,96896.75
2022-12-16T01:06:15.579Z,96877.16
2022-12-16T01:08:48.895Z,96874.56
2022-12-16T01:11:18.197Z,96881.41
2022-12-16T01:13:46.397Z,96880.66
2022-12-16T01:16:13.417Z,96855.53
2022-12-16T01:18:40.328Z,96843.41
2022-12-16T01:21:15.570Z,96831.56
2022-12-16T01:23:42.630Z,96831.47
2022-12-16T01:26:10.925Z,96828.97
2022-12-16T01:28:37.759Z,96833.38
2022-12-16T01:31:12.578Z,96826.06
2022-12-16T01:33:39.726Z,96833.00
2022-12-16T01:36:08.095Z,96828.53
2022-12-16T01:38:36.156Z,96825.38
2022-12-16T01:41:05.535Z,96817.22
2022-12-16T01:43:35.996Z,96810.75
2022-12-16T01:46:12.185Z,96817.88
2022-12-16T01:48:41.785Z,96808.56
2022-12-16T01:51:14.738Z,96790.88
2022-12-16T01:53:42.821Z,96800.31
2022-12-16T01:56:11.071Z,96781.72
2022-12-16T01:58:39.033Z,96796.12
2022-12-16T02:01:05.969Z,96792.94
2022-12-16T02:03:36.770Z,96792.47
2022-12-16T02:06:06.224Z,96792.59
2022-12-16T02:08:33.235Z,96786.97
2022-12-16T02:11:34.008Z,96749.94
2022-12-16T02:14:12.751Z,96748.63
2022-12-16T02:16:59.971Z,96740.41
2022-12-16T02:19:48.383Z,96758.25
2022-12-16T02:22:21.297Z,96738.31
2022-12-16T02:25:06.872Z,96738.09
2022-12-16T02:28:01.652Z,96726.09
2022-12-16T02:30:52.142Z,96717.63
2022-12-16T02:33:22.488Z,96737.50
2022-12-16T02:35:52.073Z,96741.84
2022-12-16T02:38:39.778Z,96748.44
2022-12-16T02:41:17.364Z,96745.47
2022-12-16T02:43:44.158Z,96755.31
2022-12-16T02:46:10.876Z,96752.34
2022-12-16T02:48:37.792Z,96754.37
2022-12-16T02:51:04.549Z,96746.44
2022-12-16T02:53:35.679Z,96738.47
2022-12-16T02:56:19.457Z,96737.81
2022-12-16T02:58:52.653Z,96735.53
2022-12-16T03:02:02.365Z,96723.22
2022-12-16T03:04:39.265Z,96715.78
2022-12-16T03:07:08.272Z,96705.84
2022-12-16T03:09:38.642Z,96702.41
2022-12-16T03:12:10.015Z,96705.94
2022-12-16T03:14:39.835Z,96706.69
2022-12-16T03:17:08.536Z,96715.75
2022-12-16T03:19:36.676Z,96726.63
2022-12-16T03:22:16.099Z,96737.41
2022-12-16T03:24:43.277Z,96728.12
2022-12-16T03:27:31.315Z,96722.75
2022-12-16T03:30:12.714Z,96697.56
2022-12-16T03:33:08.845Z,96708.81
2022-12-16T03:35:41.081Z,96694.38
2022-12-16T03:38:10.832Z,96691.38
2022-12-16T03:40:40.223Z,96678.13
2022-12-16T03:43:07.672Z,96675.66
2022-12-16T03:45:39.448Z,96675.66
2022-12-16T03:48:11.217Z,96667.78
2022-12-16T03:50:50.364Z,96673.47
2022-12-16T03:53:17.213Z,96660.94
2022-12-16T03:55:43.838Z,96652.69
2022-12-16T03:58:10.692Z,96658.44
2022-12-16T04:00:48.098Z,96646.66
2022-12-16T04:03:15.172Z,96642.09
2022-12-16T04:05:42.170Z,96641.00
2022-12-16T04:08:08.824Z,96630.03
2022-12-16T04:10:55.278Z,96620.88
2022-12-16T04:13:51.333Z,96630.34
2022-12-16T04:16:36.989Z,96632.56
2022-12-16T04:19:22.769Z,96620.69
2022-12-16T04:22:09.080Z,96608.59
2022-12-16T04:24:36.341Z,96612.47
2022-12-16T04:27:21.656Z,96626.78
2022-12-16T04:30:10.321Z,96625.25
2022-12-16T04:32:55.727Z,96632.31
2022-12-16T04:35:41.341Z,96632.66
2022-12-16T04:38:26.829Z,96627.91
2022-12-16T04:41:21.191Z,96634.09
2022-12-16T04:44:07.010Z,96625.31
2022-12-16T04:46:52.736Z,96623.44
2022-12-16T04:49:49.062Z,96635.84
2022-12-16T04:52:34.684Z,96649.13
2022-12-16T04:55:20.314Z,96658.75
2022-12-16T04:58:16.689Z,96667.63
2022-12-16T05:01:03.833Z,96678.84
2022-12-16T05:03:49.593Z,96679.38
2022-12-16T05:06:35.769Z,96689.47
2022-12-16T05:09:22.020Z,96681.69
2022-12-16T05:12:08.142Z,96702.41
2022-12-16T05:14:53.850Z,96705.47
2022-12-16T05:17:40.276Z,96694.91
2022-12-16T05:20:26.317Z,96706.41
2022-12-16T05:23:15.395Z,96722.72
2022-12-16T05:26:01.008Z,96709.88
2022-12-16T05:28:46.586Z,96720.84
2022-12-16T05:31:36.183Z,96730.03
2022-12-16T05:34:21.888Z,96730.81
2022-12-16T05:37:07.360Z,96732.41
2022-12-16T05:39:53.980Z,96712.00
2022-12-16T05:42:39.743Z,96692.84
2022-12-16T05:45:25.176Z,96691.94
2022-12-16T05:48:10.707Z,96686.97
2022-12-16T05:51:04.341Z,96666.41
2022-12-16T05:53:49.985Z,96680.38
2022-12-16T05:56:35.623Z,96681.75
2022-12-16T05:59:21.246Z,96669.34
2022-12-16T06:02:06.921Z,96665.50
2022-12-16T06:04:52.615Z,96663.19
2022-12-16T06:07:38.247Z,96673.44
2022-12-16T06:10:23.711Z,96680.66
2022-12-16T06:13:09.383Z,96686.69
2022-12-16T06:15:55.001Z,96683.72
2022-12-16T06:18:40.449Z,96695.06
2022-12-16T06:21:26.183Z,96698.25
2022-12-16T06:24:11.684Z,96696.81
2022-12-16T06:26:57.346Z,96709.09
2022-12-16T06:29:42.870Z,96715.78
2022-12-16T06:32:28.468Z,96707.53
2022-12-16T06:35:14.180Z,96724.81
2022-12-16T06:37:59.670Z,96719.66
2022-12-16T06:40:45.286Z,96722.84
2022-12-16T06:43:31.104Z,96720.41
2022-12-16T06:46:17.076Z,96739.19
2022-12-16T06:49:02.653Z,96736.31
2022-12-16T06:51:48.107Z,96734.84
2022-12-16T06:54:33.827Z,96722.53
2022-12-16T06:57:19.341Z,96720.75
2022-12-16T07:00:04.787Z,96732.56
2022-12-16T07:02:50.761Z,96742.41
2022-12-16T07:05:36.083Z,96724.81
2022-12-16T07:08:21.797Z,96729.88
2022-12-16T07:11:16.011Z,96726.38
2022-12-16T07:14:02.461Z,96732.53
2022-12-16T07:16:47.993Z,96737.16
2022-12-16T07:19:33.655Z,96732.69
2022-12-16T07:22:19.271Z,96742.03
2022-12-16T07:25:05.551Z,96737.22
2022-12-16T07:27:50.795Z,96740.75
2022-12-16T07:30:36.520Z,96729.16
2022-12-16T07:33:23.449Z,96723.91
2022-12-16T07:36:11.647Z,96716.94
2022-12-16T07:39:03.756Z,96707.84
2022-12-16T07:41:49.179Z,96719.47
2022-12-16T07:44:34.822Z,96740.19
2022-12-16T07:47:20.558Z,96734.53
2022-12-16T07:50:06.075Z,96747.53
2022-12-16T07:52:51.885Z,96754.44
2022-12-16T07:55:37.581Z,96757.47
2022-12-16T07:58:23.152Z,96751.41
2022-12-16T08:01:09.801Z,96749.22
2022-12-16T08:03:55.917Z,96770.97
2022-12-16T08:06:41.604Z,96771.81
2022-12-16T08:09:27.193Z,96783.50
2022-12-16T08:12:12.963Z,96778.00
2022-12-16T08:14:58.585Z,96772.94
2022-12-16T08:17:44.140Z,96765.81
2022-12-16T08:20:29.960Z,96753.44
2022-12-16T08:23:15.680Z,96747.63
2022-12-16T08:26:01.254Z,96739.72
2022-12-16T08:28:46.872Z,96740.69
2022-12-16T08:31:39.928Z,96757.41
2022-12-16T08:34:25.489Z,96750.56
2022-12-16T08:37:11.295Z,96750.06
2022-12-16T08:40:25.762Z,96768.69
2022-12-16T08:43:07.863Z,96773.09
2022-12-16T08:45:56.775Z,96787.72
2022-12-16T08:48:42.416Z,96775.81
2022-12-16T08:51:27.972Z,96780.00
2022-12-16T08:54:13.472Z,96788.94
2022-12-16T08:56:59.141Z,96789.66
2022-12-16T08:59:44.935Z,96780.84
2022-12-16T09:02:30.746Z,96787.84
2022-12-16T09:05:16.863Z,96801.09
2022-12-16T09:08:02.488Z,96795.00
2022-12-16T09:10:48.054Z,96812.16
2022-12-16T09:13:35.018Z,96814.84
2022-12-16T09:16:21.241Z,96822.16
2022-12-16T09:19:06.914Z,96825.72
2022-12-16T09:21:52.912Z,96834.09
2022-12-16T09:24:40.094Z,96845.50
2022-12-16T09:27:25.556Z,96842.78
2022-12-16T09:30:10.862Z,96844.59
2022-12-16T09:33:00.810Z,96849.84
2022-12-16T09:35:46.372Z,96849.03
2022-12-16T09:38:31.955Z,96855.94
2022-12-16T09:41:26.731Z,96856.44
2022-12-16T09:44:28.112Z,96855.69
2022-12-16T09:47:26.873Z,96863.41
2022-12-16T09:53:58.229Z,96853.53
2022-12-16T09:56:52.357Z,96857.38
2022-12-16T09:59:47.416Z,96848.78
2022-12-16T10:02:34.779Z,96863.41
2022-12-16T10:05:20.914Z,96867.75
2022-12-16T10:08:38.994Z,96863.84
2022-12-16T10:11:32.510Z,96868.69
2022-12-16T10:14:24.323Z,96872.00
2022-12-16T10:17:31.836Z,96872.66
2022-12-16T10:20:55.164Z,96881.28
2022-12-16T10:24:07.100Z,96890.09
2022-12-16T10:27:04.748Z,96892.28
2022-12-16T10:29:51.940Z,96882.25
2022-12-16T10:32:51.223Z,96874.13
2022-12-16T10:35:47.891Z,96893.06
2022-12-16T10:38:47.882Z,96901.69
2022-12-16T10:41:33.886Z,96913.16
2022-12-16T10:44:19.449Z,96925.88
2022-12-16T10:47:05.273Z,96940.25
2022-12-16T10:49:55.046Z,96938.34
2022-12-16T10:52:40.431Z,96946.97
2022-12-16T10:55:44.466Z,96953.09
2022-12-16T10:58:35.925Z,96950.25
2022-12-16T11:01:40.111Z,96946.44
2022-12-16T11:04:49.399Z,96953.50
2022-12-16T11:08:03.912Z,96945.41
2022-12-16T11:10:51.935Z,96940.25
2022-12-16T11:13:44.283Z,96939.22
2022-12-16T11:16:39.737Z,96946.53
2022-12-16T11:19:39.555Z,96925.94
2022-12-16T11:22:38.082Z,96926.34
2022-12-16T11:25:24.262Z,96916.97
2022-12-16T11:28:23.732Z,96910.59
2022-12-16T11:31:14.435Z,96913.56
2022-12-16T11:34:01.324Z,96900.50
2022-12-16T11:36:46.748Z,96915.72
2022-12-16T11:39:37.483Z,96905.50
2022-12-16T11:42:24.073Z,96896.44
2022-12-16T11:45:14.903Z,96904.91
2022-12-16T11:48:13.498Z,96910.28
2022-12-16T11:51:06.227Z,96926.06
2022-12-16T11:53:57.019Z,96928.91
2022-12-16T11:56:45.313Z,96945.56
2022-12-16T12:00:06.316Z,96935.41
2022-12-16T12:03:13.793Z,96936.59
2022-12-16T12:06:17.436Z,96948.97
2022-12-16T12:09:24.092Z,96964.66
2022-12-16T12:12:35.741Z,96966.69
2022-12-16T12:15:34.269Z,96956.75
2022-12-16T12:18:39.557Z,96971.94
2022-12-16T12:21:37.332Z,96973.31
2022-12-16T12:24:31.521Z,96969.09
2022-12-16T12:27:31.944Z,96984.84
2022-12-16T12:30:25.440Z,96981.81
2022-12-16T12:33:38.885Z,96981.34
2022-12-16T12:36:52.467Z,96983.19
2022-12-16T12:40:03.841Z,96989.03
2022-12-16T12:43:08.599Z,96995.56
2022-12-16T12:46:02.260Z,97001.03
2022-12-16T12:48:59.712Z,97003.69
2022-12-16T12:51:49.618Z,97002.94
2022-12-16T12:54:40.814Z,97008.75
2022-12-16T12:57:27.946Z,97007.50
2022-12-16T13:00:34.331Z,97002.78
2022-12-16T13:03:38.117Z,97029.22
2022-12-16T13:06:24.877Z,97027.94
2022-12-16T13:09:10.444Z,97038.97
2022-12-16T13:11:56.531Z,97044.00
2022-12-16T13:14:51.404Z,97041.94
2022-12-16T13:17:40.643Z,97037.94
2022-12-16T13:20:57.149Z,97030.69
2022-12-16T13:23:57.768Z,97025.56
2022-12-16T13:26:48.329Z,97037.19
2022-12-16T13:29:42.508Z,97038.00
2022-12-16T13:32:30.798Z,97022.97
2022-12-16T13:35:19.661Z,97027.87
2022-12-16T13:38:21.969Z,97042.00
2022-12-16T13:41:13.368Z,97035.66
2022-12-16T13:44:28.949Z,97043.22
2022-12-16T13:47:15.030Z,97049.75
2022-12-16T13:50:12.630Z,97051.91
2022-12-16T13:53:13.679Z,97045.94
2022-12-16T13:56:19.363Z,97047.50
2022-12-16T13:59:07.891Z,97052.84
2022-12-16T14:02:15.664Z,97056.12
2022-12-16T14:05:10.786Z,97059.94
2022-12-16T14:07:59.750Z,97074.75
2022-12-16T14:10:50.651Z,97083.25
2022-12-16T14:13:55.040Z,97087.91
2022-12-16T14:16:43.372Z,97089.00
2022-12-16T14:19:34.611Z,97097.81
2022-12-16T14:22:35.297Z,97101.53
2022-12-16T14:25:33.448Z,97113.59
2022-12-16T14:28:19.186Z,97120.25
2022-12-16T14:31:04.638Z,97115.16
2022-12-16T14:33:50.192Z,97105.13
2022-12-16T14:36:40.903Z,97102.94
2022-12-16T14:39:39.679Z,97104.03
2022-12-16T14:42:39.059Z,97121.69
2022-12-16T14:45:34.893Z,97123.38
2022-12-16T14:48:22.923Z,97126.97
2022-12-16T14:51:27.972Z,97146.56
2022-12-16T14:54:13.334Z,97151.31
2022-12-16T14:56:58.670Z,97155.31
2022-12-16T14:59:44.217Z,97164.88
2022-12-16T15:02:49.206Z,97166.16
2022-12-16T15:05:34.673Z,97174.16
2022-12-16T15:08:20.016Z,97183.16
2022-12-16T15:11:26.050Z,97188.53
2022-12-16T15:14:14.046Z,97182.78
2022-12-16T15:16:59.395Z,97166.28
2022-12-16T15:19:44.831Z,97168.47
2022-12-16T15:22:33.932Z,97178.53
2022-12-16T15:25:19.793Z,97188.06
2022-12-16T15:28:15.478Z,97181.34
2022-12-16T15:31:04.057Z,97182.19
2022-12-16T15:33:55.277Z,97169.22
2022-12-16T15:36:47.162Z,97161.84
2022-12-16T15:39:53.435Z,97160.88
2022-12-16T15:42:39.076Z,97160.75
2022-12-16T15:45:34.196Z,97163.09
2022-12-16T15:48:46.209Z,97159.91
2022-12-16T15:51:49.635Z,97154.78
2022-12-16T15:54:40.241Z,97163.28
2022-12-16T15:57:45.289Z,97166.84
2022-12-16T16:00:57.185Z,97170.53
2022-12-16T16:03:45.422Z,97173.94
2022-12-16T16:06:43.582Z,97185.78
2022-12-16T16:09:43.879Z,97209.00
2022-12-16T16:12:34.030Z,97206.31
2022-12-16T16:15:19.553Z,97218.37
2022-12-16T16:18:07.583Z,97230.72
2022-12-16T16:20:52.920Z,97222.09
2022-12-16T16:23:38.458Z,97219.22
2022-12-16T16:26:24.100Z,97210.34
2022-12-16T16:29:09.595Z,97203.41
2022-12-16T16:31:58.195Z,97202.59
2022-12-16T16:34:46.189Z,97212.69
2022-12-16T16:37:36.859Z,97226.34
2022-12-16T16:40:49.319Z,97228.69
2022-12-16T16:43:35.365Z,97224.94
2022-12-16T16:46:21.527Z,97219.19
2022-12-16T16:49:07.107Z,97226.81
2022-12-16T16:51:52.672Z,97225.84
2022-12-16T16:54:38.113Z,97220.34
2022-12-16T16:57:23.569Z,97216.63
2022-12-16T17:00:08.717Z,97237.38
2022-12-16T17:02:54.520Z,97244.41
2022-12-16T17:05:40.108Z,97235.91
2022-12-16T17:08:25.573Z,97235.91
2022-12-16T17:11:11.186Z,97244.44
2022-12-16T17:13:56.395Z,97232.31
2022-12-16T17:16:42.039Z,97220.50
2022-12-16T17:19:27.309Z,97229.81
2022-12-16T17:22:12.599Z,97232.81
2022-12-16T17:24:58.087Z,97244.19
2022-12-16T17:27:44.607Z,97248.84
2022-12-16T17:30:35.237Z,97246.16
2022-12-16T17:33:20.829Z,97252.44
2022-12-16T17:36:10.534Z,97257.37
2022-12-16T17:39:01.808Z,97256.25
2022-12-16T17:41:49.085Z,97250.22
2022-12-16T17:44:34.245Z,97252.75
2022-12-16T17:47:19.667Z,97274.69
2022-12-16T17:50:05.116Z,97286.22
2022-12-16T17:52:50.694Z,97291.72
2022-12-16T17:55:36.063Z,97275.69
2022-12-16T17:58:21.314Z,97279.25
2022-12-16T18:01:07.011Z,97280.47
2022-12-16T18:03:52.512Z,97263.78
2022-12-16T18:06:39.091Z,97271.53
2022-12-16T18:09:24.604Z,97276.53
2022-12-16T18:12:10.025Z,97273.91
2022-12-16T18:14:55.658Z,97276.94
2022-12-16T18:17:41.137Z,97277.19
2022-12-16T18:20:26.860Z,97300.16
2022-12-16T18:23:12.983Z,97300.28
2022-12-16T18:25:58.525Z,97301.28
2022-12-16T18:28:44.156Z,97319.09
2022-12-16T18:31:29.696Z,97329.59
2022-12-16T18:34:15.312Z,97338.03
2022-12-16T18:37:00.981Z,97348.37
2022-12-16T18:39:46.160Z,97341.09
2022-12-16T18:42:31.943Z,97329.94
2022-12-16T18:45:17.516Z,97351.03
2022-12-16T18:48:03.184Z,97345.38
2022-12-16T18:50:48.533Z,97336.94
2022-12-16T18:53:34.206Z,97334.56
2022-12-16T18:56:21.761Z,97339.38
2022-12-16T18:59:07.229Z,97332.63
2022-12-16T19:01:52.940Z,97327.50
2022-12-16T19:04:38.695Z,97329.41
2022-12-16T19:07:24.188Z,97349.97
2022-12-16T19:10:09.778Z,97351.94
2022-12-16T19:12:55.235Z,97348.91
2022-12-16T19:15:41.723Z,97340.03
2022-12-16T19:18:27.634Z,97337.91
2022-12-16T19:21:16.242Z,97350.75
2022-12-16T19:24:01.929Z,97352.22
2022-12-16T19:26:47.314Z,97354.59
2022-12-16T19:29:32.819Z,97359.75
2022-12-16T19:32:18.472Z,97363.84
2022-12-16T19:35:03.932Z,97364.56
2022-12-16T19:37:49.560Z,97355.19
2022-12-16T19:40:35.424Z,97361.94
2022-12-16T19:43:20.882Z,97366.66
2022-12-16T19:46:13.117Z,97355.09
2022-12-16T19:48:59.385Z,97359.22
2022-12-16T19:51:44.992Z,97365.44
2022-12-16T19:54:30.446Z,97368.94
2022-12-16T19:57:16.038Z,97361.56
2022-12-16T20:00:01.641Z,97373.97
2022-12-16T20:02:47.666Z,97378.28
2022-12-16T20:05:33.673Z,97376.38
2022-12-16T20:08:19.163Z,97380.91
2022-12-16T20:11:04.884Z,97376.63
2022-12-16T20:13:50.532Z,97388.59
2022-12-16T20:16:37.267Z,97384.31
2022-12-16T20:19:22.978Z,97391.16
2022-12-16T20:22:11.870Z,97411.50
2022-12-16T20:24:58.492Z,97417.97
2022-12-16T20:27:44.303Z,97420.13
2022-12-16T20:30:30.472Z,97432.75
2022-12-16T20:33:16.166Z,97425.78
2022-12-16T20:36:01.653Z,97425.56
2022-12-16T20:38:47.212Z,97426.50
2022-12-16T20:41:33.020Z,97433.34
2022-12-16T20:44:18.586Z,97437.19
2022-12-16T20:47:04.027Z,97438.00
2022-12-16T20:49:49.562Z,97438.88
2022-12-16T20:52:35.115Z,97428.94
2022-12-16T20:55:20.655Z,97435.47
2022-12-16T20:58:06.032Z,97438.50
2022-12-16T21:00:51.659Z,97455.34
2022-12-16T21:03:37.399Z,97444.38
2022-12-16T21:06:24.503Z,97430.91
2022-12-16T21:09:09.946Z,97431.16
2022-12-16T21:12:15.319Z,97427.28
2022-12-16T21:15:00.441Z,97420.97
2022-12-16T21:17:45.873Z,97429.47
2022-12-16T21:20:31.478Z,97444.12
2022-12-16T21:23:31.746Z,97444.31
2022-12-16T21:26:19.840Z,97446.25
2022-12-16T21:29:05.980Z,97446.22
2022-12-16T21:31:51.635Z,97452.66
2022-12-16T21:34:39.298Z,97458.66
2022-12-16T21:37:24.718Z,97455.97
2022-12-16T21:40:10.358Z,97465.44
2022-12-16T21:42:56.304Z,97466.09
2022-12-16T21:45:42.026Z,97456.25
2022-12-16T21:48:30.187Z,97465.88
2022-12-16T21:51:15.761Z,97470.94
2022-12-16T21:54:04.897Z,97459.28
2022-12-16T21:56:53.243Z,97457.66
2022-12-16T21:59:42.045Z,97464.91
2022-12-16T22:02:31.206Z,97460.19
2022-12-16T22:05:16.695Z,97464.31
2022-12-16T22:08:02.489Z,97466.72
2022-12-16T22:10:47.871Z,97473.81
2022-12-16T22:13:33.471Z,97479.88
2022-12-16T22:16:19.012Z,97478.16
2022-12-16T22:19:04.492Z,97474.38
2022-12-16T22:21:50.163Z,97475.09
2022-12-16T22:24:35.698Z,97476.16
2022-12-16T22:27:21.320Z,97478.34
2022-12-16T22:30:06.936Z,97465.03
2022-12-16T22:32:52.522Z,97467.62
2022-12-16T22:35:41.991Z,97474.03
2022-12-16T22:38:27.431Z,97476.81
2022-12-16T22:41:14.529Z,97482.47
2022-12-16T22:44:00.238Z,97493.06
2022-12-16T22:46:45.919Z,97494.66
2022-12-16T22:49:31.908Z,97509.00
2022-12-16T22:52:17.715Z,97508.94
2022-12-16T22:55:03.245Z,97513.31
2022-12-16T22:57:50.842Z,97516.03
2022-12-16T23:00:37.437Z,97508.34
2022-12-16T23:03:22.968Z,97500.94
2022-12-16T23:06:08.632Z,97501.16
2022-12-16T23:08:55.235Z,97464.03
2022-12-16T23:11:45.313Z,97476.06
2022-12-16T23:14:30.684Z,97483.06
2022-12-16T23:17:16.276Z,97485.59
2022-12-16T23:20:01.760Z,97492.31
2022-12-16T23:22:47.374Z,97494.19
2022-12-16T23:25:32.839Z,97491.59
2022-12-16T23:28:18.089Z,97486.13
2022-12-16T23:31:03.655Z,97478.37
2022-12-16T23:33:48.985Z,97488.94
2022-12-16T23:36:34.643Z,97490.31
2022-12-16T23:39:20.221Z,97484.59
2022-12-16T23:42:05.881Z,97483.31
2022-12-16T23:44:55.321Z,97493.37
2022-12-16T23:47:41.924Z,97491.34
2022-12-16T23:50:27.598Z,97482.50
2022-12-16T23:53:28.400Z,97482.59
2022-12-16T23:56:14.906Z,97473.38
2022-12-16T23:59:00.376Z,97473.84
